GCLAGCHI

Guest
Details From GCLA - La Palma
To GCHI - Hierro
Flight Number -
Tags decoded
Created
Modified
Stats Distance 49 nm / 91 km
Max Altitude 0 ft / 0 m
Waypoints 3
Social Downloads 1
Likes 0
Share VATSIM

Download

Looking for another format? Having issues loading an existing format? Contact us
Advertisement - Login to hide

Notes

Requested: GCLA DEPIS GCHI

Route

GCLA DEPIS GCHI

ID Type Via Altitude Latitude Longitude Leg Dist Tot Dist Heading (true) Name
O GCLA APT - 0 ft / 0 m 28.62648˚ -17.75561˚ - 0 nm - La Palma
DEPIS FIX - 0 ft / 0 m 28.18791˚ -17.82247˚ 26 nm 26 nm 188° / 188° -
O GCHI APT - 0 ft / 0 m 27.81485˚ -17.88705˚ 22 nm 49 nm 189° / 189° Hierro

Altitude Profile

Advertisement - Login to hide

GCLA

Details ICAO GCLA (SPC)
Name La Palma
Region Canary Islands
Timezone Atlantic/Canary (UTC+0.0)
Stats Elevation 107 ft / 33 m (AMSL)
Location 28.626480° -17.755613°
Runways 1
Magnetic Variation 5.521° W

METAR

GCLA 171930Z 02013KT 340V060 9999 BKN040 19/11 Q1025

Decode

TAF

TAF GCLA 171400Z 1715/1815 02013KT 9999 SCT035 TX22/1814Z TN17/1806Z PROB40 TEMPO 1715/1718 RA

Decode

Departure Runways

ID Width Length Bearing (true) Bearing (mag) Surface Threshold Offset Overrun Length
01 148 ft / 45 m 7,240 ft / 2,207 m 359.02° 4.54° Asphalt 0 ft / 0 m 279 ft / 85 m
19 148 ft / 45 m 7,240 ft / 2,207 m 179.02° 184.54° Asphalt 0 ft / 0 m 236 ft / 72 m

GCHI

Details ICAO GCHI (VDE)
Name Hierro
Region Canary Islands
Timezone Atlantic/Canary (UTC+0.0)
Stats Elevation 337 ft / 103 m (AMSL)
Location 27.814848° -17.887052°
Runways 1
Magnetic Variation 5.628° W

METAR

GCHI 171930Z AUTO 05019KT 9999 SCT031/// 19/13 Q1024

Decode

TAF

TAF GCHI 171400Z 1715/1815 04015KT 9999 FEW030 TX23/1814Z TN20/1806Z PROB30 TEMPO 1715/1718 RA

Decode

Destination Runways

ID Width Length Bearing (true) Bearing (mag) Surface Threshold Offset Overrun Length
16 98 ft / 30 m 4,110 ft / 1,253 m 152.71° 158.34° Asphalt 0 ft / 0 m 112 ft / 34 m
34 98 ft / 30 m 4,110 ft / 1,253 m 332.71° 338.34° Asphalt 0 ft / 0 m 105 ft / 32 m

Popular Alternatives